Time;durP1;ratioP1;P1;durP2;ratioP2;P2;SDS_P1;SDS_P2;PMS_P1;PMS_P2;Temp;Humidity;BMP_temperature;BMP_pressure;BME280_temperature;BME280_humidity;BME280_pressure;Samples;Min_cycle;Max_cycle;Signal;HPM_P1;HPM_P2
2023/03/09 00:01:49;;;;;;;2.57;1.10;;;11.20;53.10;;;;;;5016937;28;46619;-80
2023/03/09 00:04:16;;;;;;;1.80;1.10;;;11.20;52.80;;;;;;5039990;28;46361;-80
2023/03/09 00:06:42;;;;;;;1.70;0.93;;;11.20;52.70;;;;;;5038619;28;46727;-80
2023/03/09 00:09:08;;;;;;;2.50;1.00;;;11.20;52.70;;;;;;5040686;28;46494;-79
2023/03/09 00:11:33;;;;;;;2.60;1.33;;;11.10;53.30;;;;;;5037490;28;46368;-79
2023/03/09 00:13:59;;;;;;;2.10;1.23;;;11.00;53.80;;;;;;5048398;28;46415;-81
2023/03/09 00:16:27;;;;;;;2.10;1.00;;;10.80;54.30;;;;;;5019284;28;45917;-80
2023/03/09 00:18:56;;;;;;;3.37;1.30;;;10.60;54.90;;;;;;5035402;28;46770;-80
2023/03/09 00:21:37;;;;;;;2.33;1.13;;;10.50;55.20;;;;;;5034166;28;46511;-80
2023/03/09 00:24:13;;;;;;;2.07;1.03;;;10.60;55.10;;;;;;5038516;28;46272;-80
2023/03/09 00:26:48;;;;;;;4.60;1.60;;;10.70;54.70;;;;;;5026691;28;46493;-79
2023/03/09 00:29:13;;;;;;;3.47;1.30;;;10.80;55.50;;;;;;5036511;28;46401;-80
2023/03/09 00:31:41;;;;;;;1.40;0.90;;;10.80;54.10;;;;;;5037781;28;46539;-79
2023/03/09 00:34:07;;;;;;;3.00;1.20;;;10.90;54.20;;;;;;5019438;28;46324;-80
2023/03/09 00:36:32;;;;;;;1.83;0.83;;;10.90;54.10;;;;;;5017955;28;46580;-78
2023/03/09 00:38:58;;;;;;;1.63;0.90;;;10.80;54.10;;;;;;5035719;28;46255;-81
2023/03/09 00:41:30;;;;;;;2.83;1.00;;;10.80;54.20;;;;;;5040536;28;46541;-80
2023/03/09 00:43:56;;;;;;;2.00;1.00;;;10.80;54.50;;;;;;5035501;28;46332;-80
2023/03/09 00:46:22;;;;;;;1.70;0.80;;;10.80;54.30;;;;;;5018830;28;46444;-80
2023/03/09 00:48:48;;;;;;;2.27;0.97;;;10.90;54.40;;;;;;5021125;28;48425;-79
2023/03/09 00:51:13;;;;;;;2.67;1.10;;;10.80;54.30;;;;;;5038157;28;46352;-80
2023/03/09 00:53:39;;;;;;;2.17;0.93;;;10.60;54.60;;;;;;5037355;28;46716;-79
2023/03/09 00:56:08;;;;;;;1.90;1.03;;;10.50;54.90;;;;;;5040446;28;46325;-79
2023/03/09 00:58:35;;;;;;;2.37;1.17;;;10.50;55.00;;;;;;5034808;28;46299;-81
2023/03/09 01:01:06;;;;;;;2.10;1.07;;;10.40;55.20;;;;;;5013030;28;46631;-80
2023/03/09 01:03:32;;;;;;;3.97;1.00;;;10.30;55.70;;;;;;5037615;28;46424;-80
2023/03/09 01:05:59;;;;;;;3.33;1.10;;;10.10;56.10;;;;;;5039931;28;46397;-79
2023/03/09 01:08:24;;;;;;;3.60;1.10;;;10.00;56.70;;;;;;5023211;28;49198;-81
2023/03/09 01:10:50;;;;;;;1.80;0.93;;;9.80;58.10;;;;;;5032420;28;46330;-81
2023/03/09 01:13:16;;;;;;;2.13;1.10;;;9.90;58.00;;;;;;5036597;28;46371;-79
2023/03/09 01:15:41;;;;;;;2.37;1.23;;;10.00;56.70;;;;;;5021338;28;45960;-80
2023/03/09 01:18:07;;;;;;;5.43;2.17;;;10.00;56.50;;;;;;5034110;28;46539;-80
2023/03/09 01:20:33;;;;;;;3.53;2.20;;;10.00;56.60;;;;;;5032510;28;46372;-79
2023/03/09 01:22:58;;;;;;;3.30;1.93;;;10.10;56.70;;;;;;5030074;28;46459;-80
2023/03/09 01:25:24;;;;;;;3.43;1.43;;;10.20;56.20;;;;;;5037418;28;45910;-81
2023/03/09 01:27:51;;;;;;;5.90;2.70;;;10.30;55.80;;;;;;5034791;28;47303;-80
2023/03/09 01:30:17;;;;;;;7.60;1.23;;;10.40;55.40;;;;;;5030349;28;46466;-80
2023/03/09 01:32:42;;;;;;;3.57;1.50;;;10.40;55.30;;;;;;5032927;28;46459;-80
2023/03/09 01:35:08;;;;;;;8.90;4.07;;;10.40;55.10;;;;;;5033721;28;45789;-82
2023/03/09 01:37:34;;;;;;;6.10;3.47;;;10.40;54.80;;;;;;5036171;28;47234;-82
2023/03/09 01:40:00;;;;;;;4.70;2.87;;;10.40;54.50;;;;;;5037488;28;46322;-83
2023/03/09 01:42:26;;;;;;;5.27;2.60;;;10.40;54.80;;;;;;5026746;28;46323;-79
2023/03/09 01:45:19;;;;;;;7.83;3.90;;;10.30;55.20;;;;;;5033376;28;46572;-81
2023/03/09 01:47:45;;;;;;;8.37;3.10;;;10.40;54.50;;;;;;5036537;28;46639;-80
2023/03/09 01:50:16;;;;;;;8.20;4.50;;;10.50;54.10;;;;;;5035970;28;46416;-79
2023/03/09 01:52:45;;;;;;;2.20;1.30;;;10.60;53.50;;;;;;5041147;28;46421;-81
2023/03/09 01:55:15;;;;;;;2.07;1.00;;;10.70;52.90;;;;;;5038778;28;46432;-81
2023/03/09 01:57:48;;;;;;;2.23;1.30;;;10.80;52.40;;;;;;5040149;28;48428;-80
2023/03/09 02:00:18;;;;;;;2.37;1.50;;;10.80;52.40;;;;;;5038017;28;46476;-78
2023/03/09 02:02:48;;;;;;;1.77;0.80;;;10.70;52.70;;;;;;5035885;28;46535;-80
2023/03/09 02:05:19;;;;;;;3.30;1.03;;;10.60;53.90;;;;;;5016452;28;46541;-78
2023/03/09 02:07:48;;;;;;;1.53;0.80;;;10.50;54.70;;;;;;5037333;28;46325;-80
2023/03/09 02:10:25;;;;;;;3.40;0.90;;;10.30;55.90;;;;;;5033118;28;46412;-80
2023/03/09 02:12:54;;;;;;;3.63;0.70;;;10.20;56.20;;;;;;5033990;28;46830;-81
2023/03/09 02:15:21;;;;;;;2.87;0.90;;;9.90;60.00;;;;;;5034869;28;45816;-81
2023/03/09 02:17:48;;;;;;;4.23;1.50;;;9.50;63.40;;;;;;5038493;28;47111;-80
2023/03/09 02:20:31;;;;;;;4.57;1.07;;;9.20;64.70;;;;;;5036970;28;45777;-77
2023/03/09 02:22:57;;;;;;;9.10;1.30;;;8.90;64.40;;;;;;5034837;28;46364;-81
2023/03/09 02:25:42;;;;;;;3.40;0.90;;;8.70;64.30;;;;;;5038807;28;46377;-80
2023/03/09 02:28:08;;;;;;;7.07;1.87;;;8.70;64.30;;;;;;5018962;28;48191;-80
2023/03/09 02:30:38;;;;;;;7.30;2.40;;;8.70;63.40;;;;;;5022593;28;46379;-80
2023/03/09 02:33:08;;;;;;;2.47;0.90;;;8.80;62.70;;;;;;5035844;28;46464;-81
2023/03/09 02:35:33;;;;;;;3.77;0.80;;;8.70;63.60;;;;;;5048589;28;46492;-81
2023/03/09 02:37:59;;;;;;;5.40;1.00;;;8.50;64.10;;;;;;5049118;28;46344;-80
2023/03/09 02:40:33;;;;;;;2.47;0.70;;;8.50;64.10;;;;;;5046833;28;46482;-79
2023/03/09 02:43:01;;;;;;;4.43;0.90;;;8.50;64.10;;;;;;5038964;28;46423;-80
2023/03/09 02:45:27;;;;;;;4.17;1.13;;;8.50;64.10;;;;;;5038258;28;46467;-80
2023/03/09 02:47:55;;;;;;;2.70;0.80;;;8.50;63.30;;;;;;5038814;28;46386;-80
2023/03/09 02:50:21;;;;;;;2.00;0.90;;;8.60;62.80;;;;;;5037204;28;46261;-80
2023/03/09 02:52:46;;;;;;;1.80;0.80;;;8.60;62.40;;;;;;5023696;28;46394;-81
2023/03/09 02:55:16;;;;;;;2.23;0.60;;;8.50;62.30;;;;;;5033198;28;46796;-82
2023/03/09 02:57:42;;;;;;;1.30;0.73;;;8.60;62.60;;;;;;5036599;28;49255;-80
2023/03/09 03:00:10;;;;;;;1.23;0.70;;;8.50;62.40;;;;;;5037744;28;46085;-80
2023/03/09 03:02:36;;;;;;;2.43;0.90;;;8.70;62.20;;;;;;5034216;28;45827;-79
2023/03/09 03:05:02;;;;;;;3.10;0.70;;;8.90;61.40;;;;;;5036499;28;46539;-80
2023/03/09 03:07:28;;;;;;;2.57;0.70;;;9.00;60.80;;;;;;5035789;28;46968;-80
2023/03/09 03:09:53;;;;;;;1.40;0.70;;;9.10;60.40;;;;;;5034600;28;46483;-79
2023/03/09 03:12:19;;;;;;;2.40;0.83;;;9.20;60.30;;;;;;5035869;28;46420;-78
2023/03/09 03:14:44;;;;;;;4.50;0.80;;;9.30;60.20;;;;;;5034830;28;46589;-78
2023/03/09 03:17:10;;;;;;;3.10;0.80;;;9.40;60.40;;;;;;5022414;28;48108;-79
2023/03/09 03:19:36;;;;;;;3.23;0.93;;;9.30;60.40;;;;;;5037584;28;46414;-79
2023/03/09 03:22:02;;;;;;;2.57;1.00;;;9.40;60.60;;;;;;5020812;28;46274;-80
2023/03/09 03:24:28;;;;;;;2.23;0.80;;;9.50;60.70;;;;;;5036173;28;46282;-78
2023/03/09 03:26:53;;;;;;;1.83;0.80;;;9.50;60.60;;;;;;5038146;28;46415;-79
2023/03/09 03:29:19;;;;;;;1.33;0.70;;;9.50;60.80;;;;;;5019314;28;46367;-81
2023/03/09 03:31:44;;;;;;;1.57;0.80;;;9.50;60.80;;;;;;5017994;28;46362;-79
2023/03/09 03:34:10;;;;;;;1.70;0.93;;;9.60;60.90;;;;;;5032252;28;46606;-79
2023/03/09 03:36:36;;;;;;;4.50;0.80;;;9.60;60.80;;;;;;5036138;28;47122;-79
2023/03/09 03:39:03;;;;;;;6.07;1.10;;;9.70;60.70;;;;;;5022098;28;46262;-78
2023/03/09 03:41:28;;;;;;;3.10;1.20;;;9.70;60.50;;;;;;5037993;28;46433;-78
2023/03/09 03:43:54;;;;;;;1.70;0.90;;;9.70;60.60;;;;;;5035404;28;46615;-78
2023/03/09 03:46:19;;;;;;;2.57;1.13;;;9.70;60.70;;;;;;5036242;28;47529;-79
2023/03/09 03:48:45;;;;;;;2.50;0.90;;;9.80;60.90;;;;;;5019833;28;46924;-78
2023/03/09 03:51:10;;;;;;;1.20;0.70;;;9.70;60.80;;;;;;5024109;28;46567;-78
2023/03/09 03:53:36;;;;;;;1.80;0.90;;;9.70;61.10;;;;;;5035546;28;46386;-80
2023/03/09 03:56:03;;;;;;;2.97;0.80;;;9.80;61.10;;;;;;5035763;28;46484;-79
2023/03/09 03:58:28;;;;;;;2.07;1.00;;;9.80;61.40;;;;;;5013401;28;46345;-80
2023/03/09 04:00:54;;;;;;;5.70;1.23;;;9.70;61.60;;;;;;5034418;28;46214;-79
2023/03/09 04:03:19;;;;;;;3.50;1.10;;;9.70;62.30;;;;;;5031818;28;46495;-77
2023/03/09 04:05:46;;;;;;;2.23;1.10;;;9.80;63.40;;;;;;5023121;28;49185;-79
2023/03/09 04:08:11;;;;;;;3.83;1.00;;;9.80;61.90;;;;;;5033816;28;46493;-80
2023/03/09 04:10:41;;;;;;;1.83;0.90;;;9.80;62.30;;;;;;5036316;28;45833;-79
2023/03/09 04:13:07;;;;;;;2.33;0.80;;;9.80;62.70;;;;;;5017213;28;45919;-78
2023/03/09 04:15:33;;;;;;;2.37;0.87;;;9.70;62.50;;;;;;5039231;28;46310;-79
2023/03/09 04:17:59;;;;;;;2.70;1.27;;;9.80;62.50;;;;;;5037238;28;46297;-80
2023/03/09 04:20:24;;;;;;;1.60;1.00;;;9.80;62.30;;;;;;5035278;28;46512;-77
2023/03/09 04:22:50;;;;;;;2.03;0.80;;;9.80;62.30;;;;;;5037339;28;46403;-79
2023/03/09 04:25:16;;;;;;;4.83;1.13;;;9.80;62.10;;;;;;5039388;28;47043;-80
2023/03/09 04:27:42;;;;;;;3.43;1.40;;;9.80;62.00;;;;;;5032047;28;46413;-78
2023/03/09 04:30:09;;;;;;;2.63;1.30;;;9.80;62.10;;;;;;5035543;28;46440;-80
2023/03/09 04:32:34;;;;;;;4.70;1.27;;;9.80;62.10;;;;;;5018972;28;46466;-79
2023/03/09 04:35:00;;;;;;;2.10;1.07;;;9.80;62.10;;;;;;5033975;28;46462;-79
2023/03/09 04:37:25;;;;;;;3.60;1.70;;;9.80;62.40;;;;;;5032637;28;46340;-80
2023/03/09 04:39:51;;;;;;;3.13;1.50;;;9.80;62.60;;;;;;5029992;28;46408;-80
2023/03/09 04:42:17;;;;;;;8.20;3.17;;;9.80;62.70;;;;;;5034678;28;46400;-79
2023/03/09 04:44:42;;;;;;;19.07;8.60;;;9.80;62.70;;;;;;5022183;28;48135;-79
2023/03/09 04:47:12;;;;;;;7.60;2.90;;;9.80;62.90;;;;;;5037098;28;46434;-79
2023/03/09 04:49:37;;;;;;;2.13;1.30;;;9.60;63.50;;;;;;5029213;28;46459;-79
2023/03/09 04:52:03;;;;;;;1.60;1.00;;;9.60;63.90;;;;;;5037224;28;46530;-79
2023/03/09 04:54:29;;;;;;;1.73;0.93;;;9.50;64.20;;;;;;5037196;28;46387;-79
2023/03/09 04:56:54;;;;;;;3.17;0.90;;;9.40;64.50;;;;;;5030337;28;46434;-78
2023/03/09 04:59:20;;;;;;;2.60;0.80;;;9.40;64.50;;;;;;5030253;28;46439;-80
2023/03/09 05:01:45;;;;;;;1.50;0.80;;;9.40;64.30;;;;;;5031550;28;46479;-80
2023/03/09 05:04:11;;;;;;;1.60;0.87;;;9.40;64.40;;;;;;5030651;28;46474;-79
2023/03/09 05:06:36;;;;;;;1.27;0.70;;;9.30;64.30;;;;;;5034940;28;46460;-79
2023/03/09 05:09:04;;;;;;;2.17;0.70;;;9.40;64.30;;;;;;5033796;28;45800;-78
2023/03/09 05:11:31;;;;;;;1.80;0.90;;;9.40;64.00;;;;;;5038136;28;46401;-79
2023/03/09 05:13:56;;;;;;;1.10;0.60;;;9.50;63.90;;;;;;5034645;28;46185;-80
2023/03/09 05:16:22;;;;;;;1.30;0.80;;;9.50;63.60;;;;;;5037601;28;46693;-80
2023/03/09 05:18:51;;;;;;;1.67;0.60;;;9.50;63.30;;;;;;5035891;28;46440;-79
2023/03/09 05:21:17;;;;;;;1.73;0.90;;;9.50;63.20;;;;;;5031743;28;47058;-79
2023/03/09 05:23:43;;;;;;;1.47;0.70;;;9.50;63.10;;;;;;5038185;28;47039;-78
2023/03/09 05:26:09;;;;;;;2.50;0.70;;;9.50;63.00;;;;;;5032252;28;46224;-78
2023/03/09 05:28:35;;;;;;;1.50;0.70;;;9.50;62.90;;;;;;5021723;28;46588;-79
2023/03/09 05:31:01;;;;;;;3.10;1.37;;;9.50;63.00;;;;;;5031200;28;45879;-78
2023/03/09 05:33:27;;;;;;;1.70;0.83;;;9.40;63.10;;;;;;5033404;28;46763;-79
2023/03/09 05:35:53;;;;;;;1.33;0.73;;;9.40;63.10;;;;;;5036001;28;46412;-79
2023/03/09 05:38:18;;;;;;;3.13;1.53;;;9.30;62.90;;;;;;5032256;28;46654;-79
2023/03/09 05:40:44;;;;;;;4.13;2.47;;;9.30;63.30;;;;;;5014740;28;46408;-79
2023/03/09 05:43:11;;;;;;;5.77;2.33;;;9.30;63.20;;;;;;5015993;28;48264;-79
2023/03/09 05:45:36;;;;;;;4.07;1.50;;;9.30;63.20;;;;;;5032648;28;46519;-79
2023/03/09 05:48:02;;;;;;;4.27;2.67;;;9.30;63.00;;;;;;5011255;28;46363;-79
2023/03/09 05:50:28;;;;;;;5.00;2.20;;;9.30;63.10;;;;;;5036704;28;46655;-79
2023/03/09 05:52:54;;;;;;;5.73;2.67;;;9.20;63.20;;;;;;5035272;28;46924;-79
2023/03/09 05:55:19;;;;;;;1.70;1.17;;;9.10;63.50;;;;;;5017230;28;46702;-78
2023/03/09 05:57:45;;;;;;;2.70;1.23;;;9.00;64.00;;;;;;5035317;28;46368;-79
2023/03/09 06:00:11;;;;;;;3.00;1.10;;;8.90;64.50;;;;;;5029596;28;46531;-80
2023/03/09 06:02:37;;;;;;;1.33;0.70;;;8.80;64.50;;;;;;5033421;28;46700;-79
2023/03/09 06:05:02;;;;;;;1.97;0.63;;;8.70;64.30;;;;;;5034891;28;46376;-79
2023/03/09 06:07:29;;;;;;;1.10;0.60;;;8.70;64.40;;;;;;5018725;28;46390;-79
2023/03/09 06:09:55;;;;;;;1.10;0.60;;;8.70;65.30;;;;;;5016794;28;46513;-80
2023/03/09 06:12:21;;;;;;;3.70;0.80;;;8.50;66.50;;;;;;5033247;28;46483;-79
2023/03/09 06:14:48;;;;;;;1.67;0.87;;;8.50;67.10;;;;;;5031832;28;46313;-80
2023/03/09 06:17:14;;;;;;;1.40;0.80;;;8.50;67.10;;;;;;5037168;28;46295;-79
2023/03/09 06:19:40;;;;;;;3.10;1.10;;;8.60;67.00;;;;;;5041504;28;46532;-79
2023/03/09 06:22:06;;;;;;;3.20;0.90;;;8.60;66.80;;;;;;5035022;28;47165;-80
2023/03/09 06:24:31;;;;;;;6.33;0.97;;;8.60;66.50;;;;;;5039982;28;46570;-79
2023/03/09 06:26:58;;;;;;;1.80;0.80;;;8.70;66.30;;;;;;5032417;28;46218;-79
2023/03/09 06:29:24;;;;;;;3.53;0.80;;;8.70;65.90;;;;;;5033212;28;46023;-78
2023/03/09 06:31:49;;;;;;;2.70;1.00;;;8.80;65.60;;;;;;5037865;28;46206;-79
2023/03/09 06:34:15;;;;;;;2.00;0.70;;;8.80;65.40;;;;;;5036214;28;45833;-78
2023/03/09 06:36:41;;;;;;;3.40;1.80;;;8.80;65.10;;;;;;5038022;28;46005;-79
2023/03/09 06:39:06;;;;;;;1.67;0.93;;;9.00;64.60;;;;;;5037423;28;46434;-80
2023/03/09 06:41:32;;;;;;;2.20;1.40;;;9.10;64.60;;;;;;5030646;28;46752;-77
2023/03/09 06:43:58;;;;;;;2.13;0.70;;;9.20;64.10;;;;;;5032737;28;46613;-78
2023/03/09 06:46:24;;;;;;;2.30;0.70;;;9.30;63.70;;;;;;5037140;28;46465;-78
2023/03/09 06:48:49;;;;;;;1.87;1.17;;;9.40;64.60;;;;;;5039155;28;46508;-78
2023/03/09 06:51:17;;;;;;;2.93;1.00;;;9.40;63.10;;;;;;5030183;28;46467;-78
2023/03/09 06:53:42;;;;;;;2.20;1.10;;;9.50;62.90;;;;;;5016381;28;46487;-77
2023/03/09 06:56:09;;;;;;;3.80;2.00;;;9.50;62.90;;;;;;5035817;28;46440;-78
2023/03/09 06:58:35;;;;;;;11.17;3.60;;;9.50;62.90;;;;;;5014315;28;45909;-79
2023/03/09 07:01:08;;;;;;;5.57;2.23;;;9.60;62.90;;;;;;5034615;28;46826;-78
2023/03/09 07:03:33;;;;;;;1.20;0.70;;;9.60;62.80;;;;;;5017634;28;46360;-80
2023/03/09 07:05:59;;;;;;;9.60;4.70;;;9.50;62.90;;;;;;5033110;28;46298;-78
2023/03/09 07:08:24;;;;;;;7.47;3.70;;;9.50;63.10;;;;;;5031574;28;46361;-78
2023/03/09 07:10:51;;;;;;;3.23;0.70;;;9.50;63.20;;;;;;5034786;28;46345;-80
2023/03/09 07:13:16;;;;;;;2.80;1.30;;;9.50;63.50;;;;;;5029460;28;46552;-80
2023/03/09 07:15:42;;;;;;;3.00;1.43;;;9.50;63.60;;;;;;5018301;28;46402;-79
2023/03/09 07:18:08;;;;;;;6.50;3.57;;;9.60;63.60;;;;;;5025499;28;46261;-80
2023/03/09 07:20:34;;;;;;;6.60;1.63;;;9.60;63.80;;;;;;5037342;28;46551;-78
2023/03/09 07:23:00;;;;;;;3.33;1.63;;;9.70;63.60;;;;;;5036044;28;46430;-78
2023/03/09 07:25:27;;;;;;;2.40;1.47;;;9.70;63.60;;;;;;5032660;28;46389;-77
2023/03/09 07:27:52;;;;;;;3.07;1.27;;;9.80;64.60;;;;;;5033262;28;46424;-78
2023/03/09 07:30:18;;;;;;;2.00;1.20;;;9.90;63.30;;;;;;5034117;28;46540;-79
2023/03/09 07:32:44;;;;;;;1.60;0.73;;;10.00;61.90;;;;;;5019379;28;46500;-78
2023/03/09 07:35:09;;;;;;;1.80;0.80;;;10.20;61.60;;;;;;5023549;28;45876;-76
2023/03/09 07:37:35;;;;;;;2.30;0.63;;;10.40;61.00;;;;;;5031608;28;46487;-78
2023/03/09 07:40:00;;;;;;;1.93;1.00;;;10.60;60.70;;;;;;5032787;28;46526;-78
2023/03/09 07:42:26;;;;;;;1.87;0.80;;;10.70;60.30;;;;;;5034573;28;46429;-80
2023/03/09 07:44:52;;;;;;;1.50;0.70;;;11.00;59.70;;;;;;5037425;28;46364;-79
2023/03/09 07:47:18;;;;;;;2.03;1.03;;;11.30;58.60;;;;;;5033070;28;46425;-79
2023/03/09 07:49:45;;;;;;;1.60;0.80;;;11.50;57.70;;;;;;5034496;28;46788;-79
2023/03/09 07:52:10;;;;;;;2.90;0.83;;;11.70;57.00;;;;;;5021755;28;46780;-78
2023/03/09 07:54:37;;;;;;;1.30;0.70;;;11.80;56.60;;;;;;5021270;28;45869;-78
2023/03/09 07:57:03;;;;;;;2.43;1.00;;;12.00;56.20;;;;;;5017466;28;46436;-79
2023/03/09 07:59:28;;;;;;;4.50;1.50;;;12.00;55.90;;;;;;5033861;28;46463;-79
2023/03/09 08:01:54;;;;;;;4.80;1.10;;;12.00;55.80;;;;;;5033023;28;46435;-78
2023/03/09 08:04:19;;;;;;;2.37;0.87;;;11.90;56.00;;;;;;5032642;28;46676;-78
2023/03/09 08:06:45;;;;;;;3.20;1.13;;;12.00;55.90;;;;;;5017157;28;46645;-78
2023/03/09 08:09:14;;;;;;;4.00;0.97;;;12.20;55.50;;;;;;5036837;28;46420;-78
2023/03/09 08:11:40;;;;;;;10.40;1.40;;;12.30;55.20;;;;;;5032690;28;46280;-79
2023/03/09 08:14:05;;;;;;;2.87;1.10;;;12.20;55.20;;;;;;5034660;28;46538;-78
2023/03/09 08:16:31;;;;;;;1.80;1.00;;;12.10;55.10;;;;;;5037178;28;47264;-80
2023/03/09 08:18:56;;;;;;;2.63;1.10;;;12.20;54.80;;;;;;5017654;28;47069;-78
2023/03/09 08:21:22;;;;;;;6.20;1.20;;;12.20;54.40;;;;;;5032316;28;46372;-79
2023/03/09 08:23:48;;;;;;;3.23;1.00;;;12.10;53.90;;;;;;5033678;28;46502;-78
2023/03/09 08:26:15;;;;;;;4.80;1.60;;;12.30;53.80;;;;;;5033320;28;45918;-77
2023/03/09 08:28:42;;;;;;;4.47;1.53;;;12.40;53.80;;;;;;5035310;28;47063;-78
2023/03/09 08:31:14;;;;;;;3.27;1.27;;;12.60;53.20;;;;;;5034259;28;46510;-77
2023/03/09 08:33:40;;;;;;;2.83;1.00;;;12.60;52.60;;;;;;5016170;28;46342;-78
2023/03/09 08:36:19;;;;;;;5.10;1.10;;;12.70;52.10;;;;;;5032524;28;46613;-78
2023/03/09 08:38:46;;;;;;;5.10;1.00;;;12.60;51.80;;;;;;5032484;28;46809;-78
2023/03/09 08:41:12;;;;;;;5.97;1.40;;;12.50;51.60;;;;;;5030137;28;46437;-77
2023/03/09 08:43:37;;;;;;;6.00;1.30;;;12.60;51.20;;;;;;5034870;28;46515;-78
2023/03/09 08:46:03;;;;;;;4.67;1.50;;;12.60;50.90;;;;;;5034615;28;46443;-78
2023/03/09 08:48:29;;;;;;;5.73;1.60;;;12.70;50.40;;;;;;5033870;28;46326;-78
2023/03/09 08:50:55;;;;;;;4.27;2.43;;;12.80;50.20;;;;;;5029603;28;46436;-78
2023/03/09 08:53:20;;;;;;;7.37;1.57;;;12.80;49.70;;;;;;5021133;28;46558;-78
2023/03/09 08:55:46;;;;;;;6.83;1.47;;;12.80;49.40;;;;;;5032718;28;46800;-78
2023/03/09 08:58:11;;;;;;;3.13;1.87;;;12.80;49.10;;;;;;5031829;28;46437;-77
2023/03/09 09:00:37;;;;;;;5.50;2.93;;;12.50;49.20;;;;;;5030793;28;46676;-78
2023/03/09 09:03:04;;;;;;;6.60;2.33;;;12.40;49.40;;;;;;5019417;28;46435;-78
2023/03/09 09:05:30;;;;;;;5.10;1.20;;;12.30;49.40;;;;;;5018647;28;46495;-79
2023/03/09 09:07:55;;;;;;;4.63;1.50;;;12.10;49.70;;;;;;5033083;28;47595;-79
2023/03/09 09:10:21;;;;;;;3.17;1.10;;;12.00;49.50;;;;;;5012667;28;46344;-80
2023/03/09 09:12:46;;;;;;;5.40;3.00;;;12.00;49.50;;;;;;5031262;28;46401;-78
2023/03/09 09:15:13;;;;;;;8.60;2.73;;;12.00;50.50;;;;;;5028256;28;46580;-77
2023/03/09 09:17:40;;;;;;;7.30;1.60;;;12.10;48.80;;;;;;5034156;28;46427;-78
2023/03/09 09:20:07;;;;;;;7.87;2.20;;;12.20;48.80;;;;;;5032148;28;45872;-80
2023/03/09 09:22:33;;;;;;;3.40;1.83;;;12.20;48.40;;;;;;5031440;28;47779;-79
2023/03/09 09:24:59;;;;;;;5.17;1.60;;;12.20;48.50;;;;;;5023489;28;46656;-79
2023/03/09 09:27:25;;;;;;;5.73;1.40;;;12.20;48.50;;;;;;5033231;28;47128;-81
2023/03/09 09:29:52;;;;;;;5.57;1.70;;;12.20;48.40;;;;;;5032213;28;45811;-79
2023/03/09 09:32:18;;;;;;;7.43;1.80;;;12.30;48.10;;;;;;5015835;28;46416;-80
2023/03/09 09:34:44;;;;;;;6.03;1.43;;;12.40;47.70;;;;;;5035758;28;46952;-77
2023/03/09 09:37:11;;;;;;;10.50;1.67;;;12.50;47.10;;;;;;5030156;28;46706;-78
2023/03/09 09:39:37;;;;;;;5.13;1.40;;;12.50;47.00;;;;;;5030990;28;46385;-79
2023/03/09 09:42:26;;;;;;;9.13;1.53;;;12.40;46.90;;;;;;5015909;28;46449;-79
2023/03/09 09:44:53;;;;;;;7.17;1.80;;;12.40;46.70;;;;;;5034468;28;46450;-78
2023/03/09 09:47:30;;;;;;;5.00;1.27;;;12.40;46.30;;;;;;5034034;28;46377;-80
2023/03/09 09:49:59;;;;;;;4.90;1.27;;;12.60;45.60;;;;;;5015056;28;46515;-79
2023/03/09 09:52:55;;;;;;;3.30;1.60;;;12.90;44.50;;;;;;5029755;28;46521;-78
2023/03/09 09:55:37;;;;;;;5.53;1.13;;;13.20;43.80;;;;;;5032980;28;46425;-78
2023/03/09 09:58:40;;;;;;;5.87;1.40;;;13.20;43.40;;;;;;5021940;28;48144;-77
2023/03/09 10:01:35;;;;;;;3.43;1.13;;;13.00;43.80;;;;;;5029563;28;46453;-79
2023/03/09 10:04:07;;;;;;;3.83;1.80;;;12.90;44.00;;;;;;5024724;28;46339;-80
2023/03/09 10:06:33;;;;;;;2.70;1.07;;;12.80;44.00;;;;;;5040151;28;46029;-79
2023/03/09 10:09:05;;;;;;;4.43;1.10;;;12.90;43.70;;;;;;5026112;28;48277;-79
2023/03/09 10:11:36;;;;;;;1.93;0.80;;;13.00;43.30;;;;;;5037555;28;46514;-77
2023/03/09 10:14:26;;;;;;;3.40;1.10;;;13.00;43.00;;;;;;5036822;28;46407;-78
2023/03/09 10:17:13;;;;;;;3.43;1.20;;;12.80;43.20;;;;;;5040455;28;46408;-79
2023/03/09 10:19:40;;;;;;;3.93;0.97;;;12.80;43.20;;;;;;5033808;28;46658;-81
2023/03/09 10:22:19;;;;;;;4.83;1.20;;;13.00;42.70;;;;;;5036448;28;46479;-79
2023/03/09 10:24:52;;;;;;;3.70;0.90;;;13.20;41.40;;;;;;5020050;28;46663;-79
2023/03/09 10:27:47;;;;;;;5.53;1.20;;;13.30;41.40;;;;;;5039780;28;46396;-79
2023/03/09 10:30:32;;;;;;;2.03;0.93;;;13.40;41.40;;;;;;5036491;28;47321;-78
2023/03/09 10:33:05;;;;;;;2.10;0.93;;;13.40;41.10;;;;;;5021447;28;46354;-80
2023/03/09 10:35:50;;;;;;;3.30;1.00;;;13.30;41.00;;;;;;5041402;28;46554;-81
2023/03/09 10:38:18;;;;;;;4.30;1.00;;;13.10;40.80;;;;;;5020026;28;46537;-80
2023/03/09 10:40:50;;;;;;;5.03;1.10;;;13.10;40.70;;;;;;5047999;28;46612;-81
2023/03/09 10:43:31;;;;;;;2.23;0.90;;;13.00;40.50;;;;;;5039720;28;46499;-80
2023/03/09 10:46:20;;;;;;;2.90;0.90;;;13.10;39.70;;;;;;5038348;28;46454;-79
2023/03/09 10:48:47;;;;;;;7.07;1.20;;;13.20;39.30;;;;;;5041922;28;46458;-78
2023/03/09 10:51:21;;;;;;;3.40;1.10;;;13.10;39.30;;;;;;5037473;28;46530;-80
2023/03/09 10:53:48;;;;;;;3.13;1.10;;;13.20;39.10;;;;;;5037631;28;46407;-79
2023/03/09 10:56:27;;;;;;;8.03;1.30;;;13.60;38.60;;;;;;5038104;28;46428;-79
2023/03/09 10:59:08;;;;;;;4.60;1.00;;;13.90;37.90;;;;;;5014719;28;46733;-79
2023/03/09 11:01:38;;;;;;;3.10;1.30;;;14.30;37.20;;;;;;5035208;28;46630;-78
2023/03/09 11:04:28;;;;;;;8.97;1.57;;;14.20;35.50;;;;;;5040129;28;46651;-80
2023/03/09 11:07:20;;;;;;;7.93;1.47;;;14.20;35.40;;;;;;5034208;28;46408;-77
2023/03/09 11:09:48;;;;;;;3.63;1.10;;;14.20;35.30;;;;;;5033321;28;46611;-79
2023/03/09 11:12:39;;;;;;;3.03;1.00;;;14.00;35.40;;;;;;5037572;28;47034;-78
2023/03/09 11:15:13;;;;;;;4.10;1.17;;;13.80;35.20;;;;;;5034998;28;46471;-78
2023/03/09 11:17:45;;;;;;;6.67;1.30;;;13.50;35.10;;;;;;5036641;28;46464;-77
2023/03/09 11:20:25;;;;;;;4.73;1.43;;;13.40;35.10;;;;;;5036622;28;46377;-78
2023/03/09 11:23:11;;;;;;;10.10;1.83;;;13.90;34.90;;;;;;5020125;28;48122;-80
2023/03/09 11:25:45;;;;;;;8.20;1.60;;;14.40;33.40;;;;;;5012590;28;46197;-79
2023/03/09 11:28:37;;;;;;;7.57;1.30;;;14.90;32.20;;;;;;5031697;28;46623;-79
2023/03/09 11:31:10;;;;;;;6.07;1.53;;;15.00;31.60;;;;;;5019152;28;46703;-77
2023/03/09 11:33:35;;;;;;;5.87;1.47;;;14.90;31.20;;;;;;5034681;28;47753;-79
2023/03/09 11:36:02;;;;;;;2.80;1.33;;;14.90;31.50;;;;;;5014724;28;46449;-78
2023/03/09 11:38:29;;;;;;;5.87;1.70;;;15.10;31.30;;;;;;5035319;28;46171;-80
2023/03/09 11:41:21;;;;;;;3.57;1.10;;;15.30;30.90;;;;;;5037052;28;46511;-78
2023/03/09 11:43:52;;;;;;;6.43;1.80;;;15.20;30.20;;;;;;5017204;28;49190;-78
2023/03/09 11:46:19;;;;;;;3.93;1.13;;;14.90;30.60;;;;;;5033734;28;46405;-78
2023/03/09 11:48:52;;;;;;;10.10;1.50;;;14.80;31.10;;;;;;5034761;28;45852;-79
2023/03/09 11:51:41;;;;;;;4.30;1.33;;;14.50;30.70;;;;;;5023253;28;46327;-79
2023/03/09 11:54:29;;;;;;;4.10;1.00;;;14.00;30.20;;;;;;5034412;28;46401;-78
2023/03/09 11:56:55;;;;;;;5.07;1.10;;;14.00;31.00;;;;;;5034982;28;46567;-78
2023/03/09 11:59:36;;;;;;;4.03;1.13;;;14.00;31.40;;;;;;5019499;28;46453;-79
2023/03/09 12:02:11;;;;;;;5.43;1.73;;;14.20;30.80;;;;;;5032923;28;47266;-79
2023/03/09 12:04:36;;;;;;;3.83;1.10;;;14.30;29.90;;;;;;5039680;28;46588;-79
2023/03/09 12:07:31;;;;;;;3.03;1.30;;;14.40;29.20;;;;;;5035897;28;46519;-79
2023/03/09 12:10:03;;;;;;;3.73;1.13;;;14.70;29.40;;;;;;5015594;28;46613;-80
2023/03/09 12:12:39;;;;;;;9.57;1.20;;;15.20;29.50;;;;;;5030201;28;46360;-78
2023/03/09 12:15:23;;;;;;;2.10;0.90;;;15.50;28.10;;;;;;5022718;28;48683;-79
2023/03/09 12:18:01;;;;;;;6.40;1.60;;;15.50;27.80;;;;;;5032675;28;46400;-80
2023/03/09 12:20:35;;;;;;;6.77;1.20;;;15.60;27.60;;;;;;5034700;28;46419;-81
2023/03/09 12:23:01;;;;;;;5.63;1.20;;;15.60;27.90;;;;;;5034298;28;46439;-79
2023/03/09 12:25:27;;;;;;;5.20;1.33;;;15.50;27.80;;;;;;5028964;28;46472;-77
2023/03/09 12:27:59;;;;;;;6.30;0.80;;;15.50;27.90;;;;;;5035937;28;46398;-78
2023/03/09 12:30:50;;;;;;;3.80;1.20;;;15.40;26.70;;;;;;5020018;28;46382;-77
2023/03/09 12:33:41;;;;;;;2.07;0.90;;;14.90;27.40;;;;;;5046329;28;46164;-79
2023/03/09 12:36:32;;;;;;;6.37;1.60;;;14.80;27.30;;;;;;5029982;28;47040;-76
2023/03/09 12:39:22;;;;;;;5.43;1.13;;;15.00;27.60;;;;;;5015766;28;46465;-76
2023/03/09 12:41:54;;;;;;;4.37;1.30;;;15.00;27.70;;;;;;5033125;28;46481;-79
2023/03/09 12:44:57;;;;;;;4.60;1.07;;;14.90;28.00;;;;;;5019019;28;46861;-78
2023/03/09 12:47:37;;;;;;;5.80;1.70;;;14.80;28.20;;;;;;5033005;28;46573;-79
2023/03/09 12:50:41;;;;;;;3.23;0.83;;;14.70;27.30;;;;;;5034002;28;46408;-80
2023/03/09 12:53:19;;;;;;;8.07;1.10;;;14.70;27.30;;;;;;5027655;28;46480;-78
2023/03/09 12:55:52;;;;;;;6.47;1.20;;;14.70;27.40;;;;;;5013365;28;46705;-78
2023/03/09 12:58:21;;;;;;;4.40;1.30;;;14.80;27.50;;;;;;5031325;28;46634;-79
2023/03/09 13:00:49;;;;;;;5.63;1.30;;;14.80;27.20;;;;;;5033741;28;46603;-78
2023/03/09 13:03:41;;;;;;;3.47;1.00;;;14.80;27.10;;;;;;5036092;28;46440;-80